Time;durP1;ratioP1;P1;durP2;ratioP2;P2;SDS_P1;SDS_P2;PMS_P1;PMS_P2;Temp;Humidity;BMP_temperature;BMP_pressure;BME280_temperature;BME280_humidity;BME280_pressure;Samples;Min_cycle;Max_cycle;Signal;HPM_P1;HPM_P2
2023/03/09 00:02:23;;;;;;;0.08;0.08;;;;;;;9.60;100.00;98301.78;6154424;23;20342;-91
2023/03/09 00:04:48;;;;;;;3.67;0.38;;;;;;;9.50;100.00;98294.00;6156152;23;20055;-92
2023/03/09 00:07:14;;;;;;;0.30;0.30;;;;;;;9.61;100.00;98310.84;6180134;23;20013;-92
2023/03/09 00:09:39;;;;;;;0.17;0.17;;;;;;;9.64;100.00;98309.88;6130456;23;20099;-93
2023/03/09 00:12:05;;;;;;;0.13;0.10;;;;;;;9.58;100.00;98301.50;6129559;23;20362;-91
2023/03/09 00:14:31;;;;;;;1.15;1.05;;;;;;;9.56;100.00;98303.19;6129657;23;20024;-91
2023/03/09 00:16:59;;;;;;;0.20;0.20;;;;;;;9.61;100.00;98305.31;6153814;23;20032;-91
2023/03/09 00:19:30;;;;;;;0.30;0.30;;;;;;;9.42;100.00;98279.00;6155628;23;20013;-92
2023/03/09 00:21:57;;;;;;;0.10;0.10;;;;;;;9.45;100.00;98287.13;6155696;23;20013;-92
2023/03/09 00:24:26;;;;;;;0.28;0.28;;;;;;;9.46;100.00;98305.25;6155634;23;20087;-92
2023/03/09 00:26:57;;;;;;;0.00;0.00;;;;;;;9.43;100.00;98311.72;6130916;23;20015;-92
2023/03/09 00:29:24;;;;;;;0.38;0.30;;;;;;;9.43;100.00;98310.94;6155868;23;20029;-92
2023/03/09 00:31:50;;;;;;;0.10;0.10;;;;;;;9.43;100.00;98310.94;6153640;23;20013;-91
2023/03/09 00:34:16;;;;;;;0.00;0.00;;;;;;;9.38;100.00;98310.34;6155824;23;20405;-92
2023/03/09 00:36:42;;;;;;;0.00;0.00;;;;;;;9.33;100.00;98302.72;6154746;23;20569;-92
2023/03/09 00:39:09;;;;;;;0.30;0.30;;;;;;;9.24;100.00;98285.41;6155854;23;20013;-92
2023/03/09 00:41:34;;;;;;;0.20;0.20;;;;;;;9.26;100.00;98296.78;6130315;23;20021;-90
2023/03/09 00:44:01;;;;;;;0.45;0.45;;;;;;;9.26;100.00;98297.50;6156045;23;20016;-92
2023/03/09 00:46:28;;;;;;;0.52;0.52;;;;;;;9.06;100.00;98264.13;6154892;23;20468;-92
2023/03/09 00:48:53;;;;;;;0.00;0.00;;;;;;;9.26;100.00;98286.44;6104964;23;20096;-93
2023/03/09 00:51:19;;;;;;;0.20;0.20;;;;;;;9.24;100.00;98294.47;6152987;23;20051;-92
2023/03/09 00:53:45;;;;;;;1.25;0.47;;;;;;;9.14;100.00;98306.81;6154186;23;20382;-91
2023/03/09 00:56:22;;;;;;;0.13;0.13;;;;;;;9.10;100.00;98294.41;6154161;23;20017;-91
2023/03/09 00:58:48;;;;;;;0.70;0.70;;;;;;;9.00;100.00;98296.44;6154023;23;20036;-91
2023/03/09 01:01:15;;;;;;;0.45;0.45;;;;;;;9.01;100.00;98309.03;6130249;23;20043;-93
2023/03/09 01:03:41;;;;;;;0.82;0.77;;;;;;;8.89;100.00;98291.44;6125855;23;20024;-92
2023/03/09 01:06:07;;;;;;;0.75;0.75;;;;;;;8.90;100.00;98292.94;6153213;23;20075;-92
2023/03/09 01:08:33;;;;;;;0.00;0.00;;;;;;;8.87;100.00;98287.59;6129806;23;20040;-93
2023/03/09 01:10:59;;;;;;;0.00;0.00;;;;;;;8.85;100.00;98292.81;6128675;23;20302;-91
2023/03/09 01:13:24;;;;;;;0.10;0.10;;;;;;;8.78;100.00;98257.19;6151686;23;20149;-91
2023/03/09 01:15:50;;;;;;;0.20;0.20;;;;;;;8.60;100.00;98240.72;6128744;23;20361;-91
2023/03/09 01:18:16;;;;;;;0.73;0.55;;;;;;;8.64;100.00;98249.59;6127846;23;20013;-92
2023/03/09 01:20:41;;;;;;;0.55;0.55;;;;;;;8.73;100.00;98260.63;6178489;23;20041;-91
2023/03/09 01:23:07;;;;;;;0.70;0.70;;;;;;;8.70;100.00;98251.25;6155376;23;20036;-91
2023/03/09 01:25:33;;;;;;;0.40;0.40;;;;;;;8.72;100.00;98261.84;6104945;23;20013;-92
2023/03/09 01:27:58;;;;;;;0.10;0.10;;;;;;;8.68;100.00;98237.16;6130379;23;20009;-91
2023/03/09 01:30:24;;;;;;;0.10;0.10;;;;;;;8.70;100.00;98239.44;6129876;23;20085;-93
2023/03/09 01:32:50;;;;;;;0.08;0.08;;;;;;;8.84;100.00;98249.81;6154151;23;20012;-91
2023/03/09 01:35:16;;;;;;;2.42;1.35;;;;;;;8.88;100.00;98242.13;6129522;23;20151;-92
2023/03/09 01:37:42;;;;;;;0.30;0.30;;;;;;;8.87;100.00;98229.53;6129699;23;20060;-92
2023/03/09 01:40:10;;;;;;;0.28;0.28;;;;;;;8.97;100.00;98242.06;6130359;23;20017;-93
2023/03/09 01:42:36;;;;;;;0.10;0.10;;;;;;;8.93;100.00;98235.19;6154362;23;20017;-91
2023/03/09 01:45:27;;;;;;;2.08;0.47;;;;;;;8.95;100.00;98239.00;6129599;23;20470;-91
2023/03/09 01:47:57;;;;;;;0.13;0.13;;;;;;;8.98;100.00;98249.13;6154104;23;20043;-92
2023/03/09 01:50:29;;;;;;;0.80;0.80;;;;;;;9.04;100.00;98252.78;6129277;23;20076;-91
2023/03/09 01:53:01;;;;;;;0.22;0.22;;;;;;;8.93;100.00;98230.41;6154037;23;20040;-91
2023/03/09 01:55:31;;;;;;;0.55;0.45;;;;;;;9.07;100.00;98246.31;6130096;23;20009;-91
2023/03/09 01:58:04;;;;;;;1.20;0.57;;;;;;;9.12;100.00;98231.84;6154614;23;20036;-91
2023/03/09 02:03:11;;;;;;;0.32;0.30;;;;;;;9.14;100.00;98217.53;6195626;23;20545;-86
2023/03/09 02:05:44;;;;;;;1.75;0.95;;;;;;;9.11;100.00;98201.88;6182895;23;20012;-85
2023/03/09 02:08:11;;;;;;;0.30;0.30;;;;;;;9.22;100.00;98219.47;6208203;23;20008;-86
2023/03/09 02:10:43;;;;;;;0.10;0.10;;;;;;;9.29;100.00;98210.81;6180188;23;20012;-86
2023/03/09 03:01:29;;;;;;;1.65;0.75;;;;;;;9.34;100.00;98220.47;6184279;23;20465;-85
2023/03/09 03:03:55;;;;;;;0.90;0.85;;;;;;;9.31;100.00;98205.56;6209932;23;20091;-85
2023/03/09 03:06:22;;;;;;;0.35;0.10;;;;;;;9.40;100.00;98217.81;6208226;23;20091;-85
2023/03/09 03:08:48;;;;;;;9.05;2.38;;;;;;;9.35;100.00;98211.69;6209748;23;20017;-85
2023/03/09 03:11:14;;;;;;;0.10;0.10;;;;;;;9.32;100.00;98207.09;6185500;23;20070;-85
2023/03/09 03:13:41;;;;;;;1.73;1.60;;;;;;;9.28;100.00;98192.69;6210059;23;20073;-85
2023/03/09 03:16:09;;;;;;;0.40;0.40;;;;;;;9.43;100.00;98205.78;6223297;23;20038;-96
2023/03/09 06:33:56;;;;;;;0.40;0.40;;;;;;;10.63;100.00;98182.72;6182609;23;20029;-93
2023/03/09 06:36:23;;;;;;;1.55;0.73;;;;;;;10.67;100.00;98177.75;6133629;23;20012;-95
2023/03/09 06:38:51;;;;;;;0.30;0.30;;;;;;;10.66;100.00;98176.97;6157323;23;20017;-94
2023/03/09 06:41:29;;;;;;;0.35;0.35;;;;;;;10.78;100.00;98186.22;6158648;23;20028;-94
2023/03/09 06:44:00;;;;;;;0.00;0.00;;;;;;;10.71;100.00;98178.31;6138256;23;20128;-96
2023/03/09 06:46:26;;;;;;;0.00;0.00;;;;;;;10.66;100.00;98182.53;6138711;23;20028;-95
2023/03/09 06:48:52;;;;;;;0.10;0.10;;;;;;;10.66;100.00;98188.06;6164889;23;20017;-96
2023/03/09 06:51:18;;;;;;;0.13;0.13;;;;;;;10.85;100.00;98205.22;6162298;23;20013;-95
2023/03/09 06:53:44;;;;;;;0.30;0.30;;;;;;;10.73;100.00;98182.13;6160044;23;20090;-94
2023/03/09 06:56:14;;;;;;;0.00;0.00;;;;;;;10.86;100.00;98200.44;6138514;23;20349;-94
2023/03/09 06:58:40;;;;;;;0.45;0.32;;;;;;;10.75;100.00;98198.28;6160083;23;20017;-94
2023/03/09 07:01:11;;;;;;;0.00;0.00;;;;;;;10.82;100.00;98195.09;6135597;23;20024;-93
2023/03/09 07:03:37;;;;;;;0.20;0.20;;;;;;;10.91;100.00;98194.97;6164609;23;20591;-94
2023/03/09 07:06:03;;;;;;;0.40;0.10;;;;;;;10.85;100.00;98185.03;6188352;23;20020;-94
2023/03/09 07:08:29;;;;;;;0.10;0.10;;;;;;;10.84;100.00;98175.94;6165305;23;20013;-94
2023/03/09 07:10:55;;;;;;;0.00;0.00;;;;;;;10.96;100.00;98188.72;6163910;23;20024;-96
2023/03/09 07:13:20;;;;;;;0.32;0.32;;;;;;;10.99;100.00;98187.78;6187041;23;20016;-94
2023/03/09 07:15:46;;;;;;;0.10;0.10;;;;;;;10.90;100.00;98168.47;6162796;23;20027;-95
2023/03/09 07:18:12;;;;;;;0.40;0.40;;;;;;;10.96;100.00;98183.19;6161267;23;20012;-94
2023/03/09 07:20:40;;;;;;;0.00;0.00;;;;;;;10.87;100.00;98174.25;6164553;23;20020;-95
2023/03/09 07:23:06;;;;;;;0.20;0.13;;;;;;;10.94;100.00;98180.13;6178384;23;20021;-94
2023/03/09 07:25:35;;;;;;;0.08;0.08;;;;;;;10.90;100.00;98182.34;6203721;23;20001;-93
2023/03/09 07:28:02;;;;;;;0.08;0.08;;;;;;;10.84;100.00;98153.03;6205525;23;20021;-95
2023/03/09 07:30:29;;;;;;;0.10;0.10;;;;;;;10.98;100.00;98183.47;6161910;23;20012;-95
2023/03/09 07:32:58;;;;;;;0.00;0.00;;;;;;;11.06;100.00;98192.91;6160755;23;20063;-96
2023/03/09 07:35:25;;;;;;;0.00;0.00;;;;;;;11.04;100.00;98195.38;6163494;23;20486;-94
2023/03/09 07:37:51;;;;;;;0.52;0.30;;;;;;;11.10;100.00;98176.81;6164199;23;20016;-95
2023/03/09 07:40:17;;;;;;;0.00;0.00;;;;;;;11.23;100.00;98190.34;6162694;23;20020;-96
2023/03/09 07:42:42;;;;;;;0.10;0.10;;;;;;;11.26;100.00;98185.81;6164861;23;20030;-95
2023/03/09 07:45:22;;;;;;;0.00;0.00;;;;;;;11.33;100.00;98199.28;6170952;23;20031;-96
2023/03/09 07:47:48;;;;;;;0.20;0.20;;;;;;;11.23;100.00;98177.25;6189636;23;20479;-94
2023/03/09 07:50:15;;;;;;;0.30;0.28;;;;;;;11.16;100.00;98190.78;6164624;23;20052;-96
2023/03/09 07:52:41;;;;;;;1.20;0.90;;;;;;;11.37;100.00;98222.03;6188138;23;20012;-95
2023/03/09 07:55:08;;;;;;;0.25;0.25;;;;;;;11.37;100.00;98222.03;6165737;23;20016;-95
2023/03/09 07:57:38;;;;;;;1.00;0.80;;;;;;;11.47;100.00;98220.66;6166534;23;20098;-96
2023/03/09 08:00:11;;;;;;;0.10;0.10;;;;;;;11.75;100.00;98215.47;6164676;23;20436;-94
2023/03/09 08:02:39;;;;;;;0.10;0.10;;;;;;;11.93;100.00;98237.38;6168201;23;20020;-94
2023/03/09 08:05:07;;;;;;;0.00;0.00;;;;;;;12.07;100.00;98228.94;6162605;23;20467;-94
2023/03/09 08:07:33;;;;;;;0.00;0.00;;;;;;;12.13;100.00;98215.84;6164961;23;20337;-94
2023/03/09 08:09:59;;;;;;;0.10;0.10;;;;;;;12.25;100.00;98238.19;6159567;23;20019;-95
2023/03/09 08:12:24;;;;;;;0.15;0.15;;;;;;;12.44;100.00;98250.50;6160210;23;20024;-94
2023/03/09 08:14:50;;;;;;;0.25;0.25;;;;;;;12.60;100.00;98241.53;6162046;23;20008;-95
2023/03/09 08:17:16;;;;;;;0.20;0.20;;;;;;;12.65;100.00;98226.13;6187598;23;20309;-96
2023/03/09 08:19:42;;;;;;;0.17;0.17;;;;;;;12.91;100.00;98238.72;6163615;23;20042;-95
2023/03/09 08:22:07;;;;;;;0.00;0.00;;;;;;;13.08;100.00;98247.16;6164444;23;20021;-95
2023/03/09 08:24:33;;;;;;;0.10;0.10;;;;;;;12.97;100.00;98208.91;6163665;23;20368;-94
2023/03/09 08:27:00;;;;;;;0.15;0.15;;;;;;;13.27;100.00;98253.88;6162957;23;20139;-96
2023/03/09 08:29:25;;;;;;;0.20;0.20;;;;;;;13.36;100.00;98247.34;6165115;23;20017;-95
2023/03/09 08:31:51;;;;;;;0.00;0.00;;;;;;;13.41;100.00;98241.03;6164742;23;20130;-94
2023/03/09 08:34:19;;;;;;;0.10;0.10;;;;;;;13.47;100.00;98250.16;6188723;23;20095;-94
2023/03/09 08:36:45;;;;;;;0.40;0.40;;;;;;;13.49;100.00;98267.16;6187575;23;20028;-94
2023/03/09 08:39:11;;;;;;;0.10;0.10;;;;;;;13.70;100.00;98254.59;6187641;23;20027;-96
2023/03/09 08:41:37;;;;;;;0.00;0.00;;;;;;;14.00;100.00;98241.00;6162201;23;20437;-95
2023/03/09 08:44:03;;;;;;;0.08;0.08;;;;;;;14.38;100.00;98243.13;6188339;23;20004;-95
2023/03/09 08:46:29;;;;;;;0.10;0.10;;;;;;;14.78;100.00;98232.72;6163905;23;20000;-95
2023/03/09 08:48:56;;;;;;;0.55;0.55;;;;;;;15.28;98.76;98249.38;6164099;23;20605;-95
2023/03/09 08:51:22;;;;;;;0.03;0.03;;;;;;;15.50;94.27;98240.94;6163649;23;20011;-95
2023/03/09 08:53:48;;;;;;;0.35;0.35;;;;;;;15.56;92.79;98236.09;6164940;23;20008;-93
2023/03/09 08:56:13;;;;;;;0.10;0.10;;;;;;;15.61;90.76;98246.47;6163832;23;20106;-95
2023/03/09 08:58:39;;;;;;;0.30;0.30;;;;;;;15.50;94.54;98238.16;6162558;23;20449;-94
2023/03/09 09:01:10;;;;;;;0.30;0.30;;;;;;;15.42;92.55;98217.56;6162875;23;20108;-95
2023/03/09 09:03:38;;;;;;;0.10;0.10;;;;;;;15.61;92.52;98251.34;6162741;23;20087;-95
2023/03/09 09:06:12;;;;;;;0.20;0.20;;;;;;;15.46;93.42;98232.03;6163802;23;20012;-95
2023/03/09 09:08:38;;;;;;;0.15;0.15;;;;;;;15.53;95.44;98242.72;6165909;23;20460;-93
2023/03/09 09:11:16;;;;;;;0.35;0.28;;;;;;;15.52;95.40;98252.38;6164104;23;20215;-94
2023/03/09 09:13:42;;;;;;;0.45;0.10;;;;;;;15.44;93.49;98245.78;6163515;23;20012;-96
2023/03/09 09:16:10;;;;;;;0.45;0.25;;;;;;;15.45;94.09;98261.25;6163977;23;20016;-95
2023/03/09 09:18:36;;;;;;;0.63;0.63;;;;;;;15.35;95.29;98271.19;6163663;23;20044;-94
2023/03/09 09:21:07;;;;;;;0.15;0.15;;;;;;;15.10;94.66;98249.91;6189308;23;20074;-95
2023/03/09 09:23:41;;;;;;;0.10;0.10;;;;;;;15.05;96.15;98250.69;6163768;23;20048;-95
2023/03/09 09:26:08;;;;;;;0.00;0.00;;;;;;;14.99;96.89;98252.75;6162982;23;20016;-95
2023/03/09 09:28:34;;;;;;;0.63;0.50;;;;;;;15.13;96.63;98271.22;6204271;23;20011;-95
2023/03/09 09:31:02;;;;;;;0.20;0.17;;;;;;;15.11;97.11;98263.38;6228563;23;20059;-95
2023/03/09 09:33:28;;;;;;;0.20;0.15;;;;;;;15.42;95.82;98284.63;6209013;23;20048;-93
2023/03/09 09:36:12;;;;;;;0.10;0.10;;;;;;;15.53;94.95;98298.59;6192169;23;20158;-94
2023/03/09 09:38:39;;;;;;;0.22;0.22;;;;;;;15.72;94.29;98290.41;6163122;23;20021;-95
2023/03/09 09:41:16;;;;;;;0.17;0.17;;;;;;;15.93;90.87;98302.03;6162370;23;20023;-95
2023/03/09 09:43:42;;;;;;;0.10;0.10;;;;;;;15.98;92.09;98276.81;6186387;23;20043;-95
2023/03/09 09:46:11;;;;;;;0.00;0.00;;;;;;;16.13;87.61;98282.09;6162541;23;20055;-93
2023/03/09 09:48:40;;;;;;;0.03;0.03;;;;;;;16.20;88.99;98292.72;6162284;23;20017;-94
2023/03/09 09:51:08;;;;;;;0.05;0.05;;;;;;;16.44;87.95;98309.63;6187372;23;20107;-93
2023/03/09 09:53:33;;;;;;;0.98;0.22;;;;;;;16.62;84.39;98314.59;6185439;23;20338;-93
2023/03/09 09:56:00;;;;;;;0.10;0.10;;;;;;;16.65;84.50;98302.41;6214751;23;20135;-93
2023/03/09 09:58:44;;;;;;;0.10;0.10;;;;;;;16.65;82.30;98319.19;6191010;23;20356;-92
2023/03/09 10:01:18;;;;;;;0.10;0.10;;;;;;;16.23;82.13;98305.69;6215129;23;20019;-92
2023/03/09 10:03:48;;;;;;;0.20;0.20;;;;;;;16.30;84.79;98325.47;6188146;23;20519;-93
2023/03/09 10:06:22;;;;;;;0.17;0.17;;;;;;;16.27;85.76;98320.16;6162756;23;20016;-94
2023/03/09 10:08:54;;;;;;;0.28;0.28;;;;;;;16.35;83.76;98315.53;6161702;23;20262;-93
2023/03/09 10:11:22;;;;;;;0.00;0.00;;;;;;;16.28;84.46;98327.28;6187552;23;20024;-93
2023/03/09 10:13:52;;;;;;;0.00;0.00;;;;;;;16.36;85.56;98322.66;6210977;23;20099;-94
2023/03/09 10:16:25;;;;;;;0.20;0.20;;;;;;;16.49;84.14;98317.22;6162968;23;20341;-93
2023/03/09 10:18:58;;;;;;;0.00;0.00;;;;;;;16.39;83.95;98316.00;6187517;23;20025;-93
2023/03/09 10:21:54;;;;;;;0.10;0.10;;;;;;;16.37;86.28;98318.59;6188348;23;20074;-94
2023/03/09 10:24:30;;;;;;;1.02;0.43;;;;;;;16.42;84.27;98314.97;6191032;23;20093;-93
2023/03/09 10:27:04;;;;;;;0.00;0.00;;;;;;;16.49;85.18;98336.81;6191720;23;20013;-96
2023/03/09 10:29:55;;;;;;;0.20;0.20;;;;;;;16.58;84.08;98325.31;6168977;23;20103;-96
2023/03/09 10:32:26;;;;;;;0.00;0.00;;;;;;;16.54;84.55;98344.41;6186598;23;20020;-95
2023/03/09 10:34:57;;;;;;;0.10;0.10;;;;;;;16.56;81.56;98346.69;6187736;23;20019;-95
2023/03/09 10:37:25;;;;;;;2.45;0.40;;;;;;;16.31;82.22;98318.59;6194112;23;20060;-95
2023/03/09 10:39:51;;;;;;;0.03;0.03;;;;;;;16.28;81.64;98316.84;6167467;23;20005;-95
2023/03/09 10:42:18;;;;;;;1.08;0.88;;;;;;;16.44;81.44;98345.25;6186784;23;20431;-95
2023/03/09 10:45:13;;;;;;;0.10;0.10;;;;;;;16.42;83.25;98347.81;6188351;23;20441;-96
2023/03/09 10:48:10;;;;;;;0.35;0.35;;;;;;;16.38;82.24;98330.53;6188902;23;20021;-95
2023/03/09 10:55:46;;;;;;;1.55;0.73;;;;;;;16.47;80.75;98328.16;6151841;23;20355;-86
2023/03/09 10:58:23;;;;;;;0.20;0.20;;;;;;;16.71;80.24;98356.28;6099955;23;20014;-86
2023/03/09 11:00:50;;;;;;;0.00;0.00;;;;;;;16.91;77.19;98371.16;6100944;23;20021;-86
2023/03/09 11:03:24;;;;;;;0.30;0.17;;;;;;;17.06;77.88;98374.38;6124400;23;20076;-86
2023/03/09 11:05:50;;;;;;;0.10;0.10;;;;;;;17.15;74.98;98368.44;6154726;23;20773;-86
2023/03/09 11:08:24;;;;;;;0.10;0.10;;;;;;;17.14;74.29;98367.69;6180775;23;20001;-86
2023/03/09 11:11:00;;;;;;;0.00;0.00;;;;;;;17.13;70.26;98359.81;6155076;23;20020;-86
2023/03/09 11:13:25;;;;;;;0.13;0.13;;;;;;;17.07;72.08;98375.88;6154042;23;20013;-86
2023/03/09 11:16:22;;;;;;;0.22;0.22;;;;;;;17.14;73.96;98372.53;6131600;23;20017;-86
2023/03/09 11:18:48;;;;;;;3.20;0.30;;;;;;;17.08;74.81;98380.97;6132397;23;20017;-86
2023/03/09 11:26:39;;;;;;;0.40;0.40;;;;;;;16.87;75.36;98387.50;6182475;23;20032;-86
2023/03/09 11:29:24;;;;;;;1.13;0.32;;;;;;;16.83;75.93;98384.22;6131982;23;20776;-86
2023/03/09 11:31:49;;;;;;;0.50;0.50;;;;;;;16.62;77.78;98373.41;6183690;23;20013;-86
2023/03/09 11:34:35;;;;;;;0.10;0.10;;;;;;;16.58;77.33;98361.72;6156774;23;20148;-86
2023/03/09 11:37:17;;;;;;;0.00;0.00;;;;;;;16.54;78.96;98378.00;6156346;23;20032;-86
2023/03/09 11:45:00;;;;;;;1.00;0.30;;;;;;;16.28;79.82;98353.22;6162675;23;20069;-96
2023/03/09 12:22:38;;;;;;;0.10;0.10;;;;;;;16.75;76.47;98386.81;6152567;23;20115;-86
2023/03/09 12:25:05;;;;;;;0.30;0.30;;;;;;;16.76;76.45;98400.31;6126273;23;20014;-86
2023/03/09 12:27:33;;;;;;;0.00;0.00;;;;;;;16.76;77.16;98394.69;6150429;23;20383;-87
2023/03/09 12:30:18;;;;;;;0.00;0.00;;;;;;;16.72;77.64;98387.84;6126288;23;20467;-86
2023/03/09 12:32:43;;;;;;;0.10;0.10;;;;;;;16.69;77.81;98375.66;6101353;23;20100;-86
2023/03/09 12:35:20;;;;;;;0.40;0.40;;;;;;;16.61;78.25;98385.88;6151244;23;20073;-86
2023/03/09 12:37:46;;;;;;;0.20;0.20;;;;;;;16.59;77.92;98384.88;6153386;23;20009;-87
2023/03/09 12:40:20;;;;;;;0.00;0.00;;;;;;;16.48;78.35;98385.69;6150380;23;20060;-86
2023/03/09 12:42:48;;;;;;;0.00;0.00;;;;;;;16.44;77.75;98385.19;6151889;23;20101;-86
2023/03/09 12:45:14;;;;;;;0.00;0.00;;;;;;;16.43;79.18;98389.25;6151242;23;20113;-86
2023/03/09 12:50:19;;;;;;;0.20;0.20;;;;;;;16.42;80.05;98393.31;6152942;23;20474;-85
2023/03/09 12:52:56;;;;;;;0.00;0.00;;;;;;;16.52;80.26;98396.59;6150743;23;20019;-85
2023/03/09 12:55:25;;;;;;;0.30;0.20;;;;;;;16.60;79.36;98398.38;6149608;23;20024;-86
2023/03/09 12:57:52;;;;;;;0.00;0.00;;;;;;;16.72;79.85;98399.81;6125652;23;20021;-85
2023/03/09 13:00:30;;;;;;;0.28;0.28;;;;;;;16.85;78.13;98415.28;6124920;23;20025;-88
2023/03/09 13:03:13;;;;;;;0.30;0.30;;;;;;;16.82;76.36;98419.13;6127935;23;20017;-87
2023/03/09 13:43:31;;;;;;;0.50;0.10;;;;;;;17.77;80.46;98436.72;6160531;23;20028;-96
2023/03/09 13:46:04;;;;;;;0.20;0.20;;;;;;;18.49;72.36;98438.72;6129090;23;20018;-89
2023/03/09 13:48:30;;;;;;;;;;;;;;;19.02;67.03;98433.44;6127324;23;20018;-88
2023/03/09 13:50:56;;;;;;;0.10;0.10;;;;;;;19.30;60.78;98416.91;6125394;23;19924;-89
2023/03/09 13:53:24;;;;;;;0.00;0.00;;;;;;;19.31;60.23;98412.81;6100909;23;20018;-88
2023/03/09 13:55:59;;;;;;;0.08;0.08;;;;;;;19.22;60.38;98424.44;6125793;23;20029;-88
2023/03/09 13:58:25;;;;;;;0.03;0.03;;;;;;;19.20;63.35;98445.97;6125194;23;20100;-88
2023/03/09 14:01:01;;;;;;;0.00;0.00;;;;;;;18.92;59.59;98410.59;6150179;23;20104;-88
2023/03/09 14:03:29;;;;;;;0.65;0.35;;;;;;;18.99;57.68;98442.94;6156948;23;20009;-93
2023/03/09 14:06:18;;;;;;;;;;;;;;;;;;;;;
2023/03/09 14:11:41;;;;;;;0.43;0.40;;;;;;;18.26;58.74;98401.00;6180518;23;20048;-96
2023/03/09 14:14:12;;;;;;;0.00;0.00;;;;;;;18.44;59.00;98411.47;6104035;23;20016;-95
2023/03/09 14:16:44;;;;;;;0.50;0.28;;;;;;;18.97;55.50;98437.84;6175364;23;20018;-96
2023/03/09 14:19:24;;;;;;;0.10;0.10;;;;;;;19.05;53.60;98407.84;6173209;23;20009;-96
2023/03/09 14:21:52;;;;;;;0.20;0.20;;;;;;;19.43;51.38;98421.84;6146662;23;20013;-96
2023/03/09 14:24:22;;;;;;;0.00;0.00;;;;;;;19.83;50.58;98450.81;6146271;23;20024;-95
2023/03/09 14:26:48;;;;;;;0.20;0.20;;;;;;;19.65;49.78;98423.53;6146882;23;20018;-96
2023/03/09 14:29:16;;;;;;;0.00;0.00;;;;;;;19.75;50.28;98464.00;6172240;23;20037;-96
2023/03/09 14:31:43;;;;;;;0.43;0.20;;;;;;;19.66;50.25;98431.41;6170568;23;20573;-96
2023/03/09 14:34:14;;;;;;;0.30;0.30;;;;;;;19.89;49.88;98457.09;6164642;23;20069;-96
2023/03/09 14:36:47;;;;;;;0.05;0.05;;;;;;;20.03;49.62;98450.94;6162379;23;20557;-96
2023/03/09 14:39:32;;;;;;;;;;;;;;;20.03;46.53;98459.38;6142602;23;20010;-96
2023/03/09 14:42:07;;;;;;;0.10;0.10;;;;;;;19.98;47.81;98443.34;6174767;23;19920;-95
2023/03/09 14:44:39;;;;;;;0.28;0.28;;;;;;;19.71;48.49;98426.97;6172539;23;20018;-96
2023/03/09 14:47:20;;;;;;;0.35;0.15;;;;;;;19.42;48.90;98435.13;6151841;23;20021;-96
2023/03/09 14:49:51;;;;;;;0.10;0.10;;;;;;;19.27;51.43;98443.28;6153243;23;20005;-96
2023/03/09 14:52:18;;;;;;;0.30;0.10;;;;;;;18.92;52.61;98432.31;6130035;23;20041;-96
2023/03/09 14:54:44;;;;;;;0.10;0.10;;;;;;;18.56;54.46;98429.72;6131041;23;20017;-95
2023/03/09 14:57:15;;;;;;;0.32;0.32;;;;;;;18.37;57.06;98434.53;6174771;23;20014;-95
2023/03/09 14:59:41;;;;;;;0.10;0.10;;;;;;;18.15;59.06;98429.19;6116341;23;20161;-95
2023/03/09 15:02:09;;;;;;;0.13;0.13;;;;;;;18.01;60.00;98441.56;6106579;23;20516;-88
2023/03/09 15:04:35;;;;;;;0.20;0.20;;;;;;;17.97;59.51;98450.28;6151302;23;20072;-88
2023/03/09 15:07:03;;;;;;;0.00;0.00;;;;;;;17.77;59.71;98447.19;6151780;23;20795;-87
2023/03/09 15:09:29;;;;;;;0.00;0.00;;;;;;;17.74;61.41;98449.00;6102810;23;20025;-88
2023/03/09 15:11:59;;;;;;;0.10;0.10;;;;;;;17.86;63.87;98480.50;6150412;23;20048;-88
2023/03/09 15:14:29;;;;;;;0.28;0.28;;;;;;;17.92;66.68;98469.97;6153406;23;20021;-88
2023/03/09 15:16:55;;;;;;;0.10;0.10;;;;;;;17.77;65.84;98455.59;6147933;23;20025;-88
2023/03/09 15:19:21;;;;;;;0.28;0.28;;;;;;;17.54;59.17;98450.16;6150694;23;20005;-88
2023/03/09 15:21:48;;;;;;;0.10;0.10;;;;;;;17.33;59.81;98442.69;6169668;23;20017;-96
2023/03/09 15:24:14;;;;;;;0.10;0.10;;;;;;;17.44;61.73;98465.78;6123630;23;20010;-96
2023/03/09 15:26:41;;;;;;;0.03;0.03;;;;;;;17.17;60.89;98450.69;6115770;23;20045;-95
2023/03/09 15:29:07;;;;;;;0.10;0.10;;;;;;;17.28;64.04;98472.28;6116714;23;20009;-96
2023/03/09 15:31:33;;;;;;;0.25;0.25;;;;;;;17.16;65.23;98454.78;6120792;23;20262;-96
2023/03/09 15:33:59;;;;;;;0.08;0.08;;;;;;;17.37;64.51;98485.19;6121034;23;20049;-95
2023/03/09 15:36:25;;;;;;;0.17;0.17;;;;;;;17.20;65.33;98454.50;6118385;23;20005;-95
2023/03/09 15:38:51;;;;;;;0.52;0.25;;;;;;;17.20;58.68;98457.28;6113771;23;20464;-95
2023/03/09 15:41:17;;;;;;;0.05;0.05;;;;;;;17.27;59.03;98465.13;6115359;23;20048;-96
2023/03/09 15:43:43;;;;;;;0.30;0.30;;;;;;;17.27;56.63;98458.78;6109432;23;20073;-96
2023/03/09 15:46:09;;;;;;;0.10;0.10;;;;;;;17.31;48.09;98459.28;6118013;23;20014;-95
2023/03/09 16:31:22;;;;;;;0.17;0.17;;;;;;;15.73;56.87;98558.25;6125289;23;20052;-96
2023/03/09 16:33:52;;;;;;;0.10;0.10;;;;;;;15.55;57.27;98558.75;6076675;23;20014;-95
2023/03/09 16:36:17;;;;;;;0.05;0.05;;;;;;;15.42;59.49;98550.06;6100710;23;20324;-95
2023/03/09 16:38:45;;;;;;;0.17;0.17;;;;;;;15.42;57.50;98578.00;6077169;23;20002;-96
2023/03/09 16:41:12;;;;;;;0.57;0.50;;;;;;;14.96;56.82;98546.91;6078751;23;20161;-94
2023/03/09 16:43:39;;;;;;;0.20;0.20;;;;;;;15.07;57.55;98586.03;6096700;23;20147;-88
2023/03/09 16:46:05;;;;;;;1.48;0.63;;;;;;;15.01;58.90;98588.03;6070137;23;20404;-87
2023/03/09 16:48:31;;;;;;;0.77;0.32;;;;;;;14.94;60.94;98592.09;6094874;23;20006;-87
2023/03/09 16:51:01;;;;;;;0.10;0.10;;;;;;;14.83;62.19;98598.38;6070764;23;20092;-87
2023/03/09 16:53:28;;;;;;;0.10;0.10;;;;;;;14.71;63.85;98594.00;6042249;23;20536;-87
2023/03/09 16:56:02;;;;;;;0.63;0.30;;;;;;;14.61;66.10;98612.22;6071668;23;20484;-95
2023/03/09 16:58:29;;;;;;;0.63;0.60;;;;;;;14.41;65.09;98598.41;6081507;23;20053;-96
2023/03/09 17:00:55;;;;;;;2.60;1.00;;;;;;;14.31;65.44;98599.84;6112416;23;20070;-96
2023/03/09 17:03:21;;;;;;;1.25;0.73;;;;;;;14.29;66.71;98611.47;6115644;23;20005;-95
2023/03/09 17:05:48;;;;;;;0.15;0.15;;;;;;;14.20;67.94;98616.47;6143655;23;20006;-96
2023/03/09 17:08:15;;;;;;;0.50;0.35;;;;;;;14.09;68.32;98617.16;6142893;23;20061;-96
2023/03/09 17:10:42;;;;;;;0.50;0.47;;;;;;;14.05;69.03;98629.78;6119818;23;20018;-96
2023/03/09 17:13:08;;;;;;;0.50;0.50;;;;;;;13.93;69.84;98632.50;6144084;23;20013;-88
2023/03/09 17:15:34;;;;;;;1.13;1.02;;;;;;;13.79;71.27;98638.94;6098448;23;20345;-87
2023/03/09 17:18:00;;;;;;;1.42;1.27;;;;;;;13.64;73.19;98627.16;6097692;23;20485;-88
2023/03/09 17:20:26;;;;;;;0.40;0.40;;;;;;;13.55;74.92;98632.88;6122938;23;20009;-88
2023/03/09 17:22:51;;;;;;;2.47;1.92;;;;;;;13.31;75.29;98615.66;6149584;23;20436;-88
2023/03/09 17:25:19;;;;;;;0.52;0.52;;;;;;;13.39;74.56;98647.38;6098415;23;20032;-88
2023/03/09 17:27:46;;;;;;;0.55;0.55;;;;;;;13.33;73.76;98646.56;6098575;23;20038;-88
2023/03/09 17:30:16;;;;;;;1.48;1.08;;;;;;;13.17;74.07;98644.34;6121097;23;20363;-87
2023/03/09 17:32:42;;;;;;;0.85;0.77;;;;;;;12.98;75.26;98635.50;6120442;23;20013;-88
2023/03/09 17:35:08;;;;;;;1.48;0.82;;;;;;;13.01;74.24;98657.56;6096608;23;20073;-89
2023/03/09 17:37:35;;;;;;;2.92;1.55;;;;;;;12.88;72.55;98661.91;6097486;23;20021;-89
2023/03/09 17:40:11;;;;;;;1.50;1.40;;;;;;;12.85;74.36;98662.91;6122126;23;20285;-88
2023/03/09 17:42:38;;;;;;;3.40;2.08;;;;;;;12.79;72.57;98665.59;6122225;23;20396;-89
2023/03/09 17:45:05;;;;;;;1.38;1.27;;;;;;;12.76;74.42;98666.56;6120273;23;20018;-89
2023/03/09 17:47:31;;;;;;;1.05;1.02;;;;;;;12.73;76.01;98689.03;6098177;23;20133;-88
2023/03/09 17:49:57;;;;;;;2.88;2.28;;;;;;;12.44;77.62;98656.50;6123827;23;20056;-95
2023/03/09 17:52:25;;;;;;;4.30;3.63;;;;;;;12.43;76.55;98666.06;6101419;23;20021;-95
2023/03/09 17:54:51;;;;;;;5.43;2.45;;;;;;;12.51;75.60;98703.38;6125688;23;20013;-94
2023/03/09 17:57:17;;;;;;;2.17;1.98;;;;;;;12.36;75.52;98689.50;6125396;23;20013;-95
2023/03/09 17:59:43;;;;;;;3.53;1.48;;;;;;;12.19;74.57;98673.78;6124727;23;20017;-94
2023/03/09 18:02:11;;;;;;;4.07;3.65;;;;;;;12.29;75.43;98700.25;6124989;23;20072;-93
2023/03/09 18:04:37;;;;;;;3.88;2.50;;;;;;;12.22;76.80;98706.16;6125400;23;20080;-94
2023/03/09 18:07:03;;;;;;;5.63;4.85;;;;;;;12.21;78.64;98710.22;6125779;23;20017;-88